createdAt,value
2022-09-12T00:00:43.124Z,68.61
2022-09-12T00:02:45.696Z,68.89
2022-09-12T00:04:49.779Z,68.68
2022-09-12T00:06:52.350Z,68.94
2022-09-12T00:08:56.847Z,69.33
2022-09-12T00:10:59.448Z,69.45
2022-09-12T00:13:01.989Z,69.33
2022-09-12T00:15:05.531Z,69.17
2022-09-12T00:17:08.088Z,69.17
2022-09-12T00:19:11.133Z,68.81
2022-09-12T00:21:15.668Z,68.51
2022-09-12T00:23:18.197Z,68.41
2022-09-12T00:25:20.781Z,68.37
2022-09-12T00:27:23.377Z,68.93
2022-09-12T00:29:26.258Z,68.76
2022-09-12T00:31:29.421Z,68.62
2022-09-12T00:33:32.213Z,69.19
2022-09-12T00:35:34.785Z,69.16
2022-09-12T00:37:38.690Z,69.20
2022-09-12T00:39:41.510Z,68.64
2022-09-12T00:41:45.162Z,69.10
2022-09-12T00:43:49.185Z,68.80
2022-09-12T00:45:51.812Z,69.05
2022-09-12T00:47:55.089Z,68.91
2022-09-12T00:50:04.739Z,68.94
2022-09-12T00:52:11.041Z,69.18
2022-09-12T00:54:18.202Z,69.67
2022-09-12T00:56:22.862Z,70.38
2022-09-12T00:58:28.954Z,70.30
2022-09-12T01:00:31.704Z,70.52
2022-09-12T01:02:34.495Z,70.61
2022-09-12T01:04:39.667Z,70.28
2022-09-12T01:06:44.399Z,70.37
2022-09-12T01:08:49.113Z,69.49
2022-09-12T01:10:53.525Z,69.66
2022-09-12T01:12:56.320Z,69.46
2022-09-12T01:14:59.753Z,69.06
2022-09-12T01:17:02.532Z,68.73
2022-09-12T01:19:21.391Z,68.87
2022-09-12T01:21:34.747Z,69.69
2022-09-12T01:24:22.717Z,70.00
2022-09-12T01:27:01.131Z,69.56
2022-09-12T01:29:22.917Z,69.44
2022-09-12T01:31:35.079Z,69.66
2022-09-12T01:33:48.751Z,69.55
2022-09-12T01:36:03.691Z,69.62
2022-09-12T01:38:12.759Z,69.34
2022-09-12T01:40:23.958Z,68.96
2022-09-12T01:42:34.470Z,68.99
2022-09-12T01:44:47.735Z,68.94
2022-09-12T01:46:59.073Z,69.04
2022-09-12T01:49:08.181Z,69.56
2022-09-12T01:51:17.967Z,69.44
2022-09-12T01:53:27.154Z,69.80
2022-09-12T01:55:33.530Z,69.73
2022-09-12T01:57:42.086Z,69.57
2022-09-12T01:59:48.689Z,69.33
2022-09-12T02:01:59.815Z,69.26
2022-09-12T02:04:09.726Z,69.20
2022-09-12T02:06:19.887Z,69.07
2022-09-12T02:08:27.590Z,69.25
2022-09-12T02:10:33.125Z,69.44
2022-09-12T02:12:43.519Z,69.83
2022-09-12T02:14:50.077Z,70.40
2022-09-12T02:16:57.933Z,70.43
2022-09-12T02:19:06.441Z,70.30
2022-09-12T02:21:09.711Z,69.66
2022-09-12T02:23:15.944Z,70.39
2022-09-12T02:25:20.826Z,70.07
2022-09-12T02:27:27.060Z,69.71
2022-09-12T02:29:30.168Z,69.52
2022-09-12T02:31:39.470Z,69.25
2022-09-12T02:33:50.555Z,69.11
2022-09-12T02:35:59.148Z,69.33
2022-09-12T02:38:05.560Z,69.60
2022-09-12T02:40:09.775Z,69.50
2022-09-12T02:42:12.604Z,69.15
2022-09-12T02:44:15.298Z,68.97
2022-09-12T02:46:21.224Z,69.11
2022-09-12T02:48:27.677Z,68.82
2022-09-12T02:50:32.618Z,69.21
2022-09-12T02:52:36.451Z,69.71
2022-09-12T02:54:39.150Z,69.78
2022-09-12T02:56:43.343Z,70.28
2022-09-12T02:58:46.486Z,70.29
2022-09-12T03:00:57.556Z,70.59
2022-09-12T03:03:21.738Z,70.62
2022-09-12T03:05:30.348Z,70.53
2022-09-12T03:07:54.208Z,70.20
2022-09-12T03:10:04.775Z,70.07
2022-09-12T03:12:24.335Z,70.19
2022-09-12T03:14:44.653Z,70.15
2022-09-12T03:16:57.987Z,70.21
2022-09-12T03:19:07.333Z,70.54
2022-09-12T03:21:17.586Z,70.28
2022-09-12T03:23:30.163Z,71.04
2022-09-12T03:25:37.249Z,71.13
2022-09-12T03:27:44.257Z,71.38
2022-09-12T03:29:48.944Z,71.21
2022-09-12T03:31:55.294Z,70.84
2022-09-12T03:33:57.870Z,71.30
2022-09-12T03:36:03.380Z,71.19
2022-09-12T03:38:07.952Z,71.75
2022-09-12T03:40:13.065Z,71.65
2022-09-12T03:42:15.649Z,71.51
2022-09-12T03:44:18.559Z,71.65
2022-09-12T03:46:21.201Z,71.40
2022-09-12T03:48:23.748Z,71.21
2022-09-12T03:50:26.318Z,71.58
2022-09-12T03:52:29.176Z,71.62
2022-09-12T03:54:31.741Z,71.90
2022-09-12T03:56:36.016Z,72.04
2022-09-12T03:58:39.406Z,72.16
2022-09-12T04:00:43.038Z,72.17
2022-09-12T04:02:45.590Z,72.10
2022-09-12T04:04:48.861Z,72.42
2022-09-12T04:06:51.418Z,72.77
2022-09-12T04:08:55.556Z,72.93
2022-09-12T04:11:04.172Z,72.78
2022-09-12T04:13:08.136Z,73.32
2022-09-12T04:15:11.496Z,73.96
2022-09-12T04:17:14.139Z,74.29
2022-09-12T04:19:16.761Z,74.99
2022-09-12T04:21:21.825Z,75.04
2022-09-12T04:23:24.421Z,74.84
2022-09-12T04:25:28.247Z,74.38
2022-09-12T04:27:30.927Z,74.23
2022-09-12T04:29:35.646Z,74.28
2022-09-12T04:31:38.560Z,74.45
2022-09-12T04:33:41.152Z,73.96
2022-09-12T04:35:45.287Z,73.98
2022-09-12T04:37:47.904Z,73.91
2022-09-12T04:39:50.692Z,74.38
2022-09-12T04:41:53.288Z,74.17
2022-09-12T04:43:59.149Z,74.19
2022-09-12T04:46:07.438Z,75.10
2022-09-12T04:48:09.989Z,75.06
2022-09-12T04:50:12.516Z,75.37
2022-09-12T04:52:15.067Z,74.65
2022-09-12T04:54:19.892Z,75.27
2022-09-12T04:56:23.762Z,75.18
2022-09-12T04:58:26.331Z,75.11
2022-09-12T05:00:29.048Z,74.49
2022-09-12T05:02:34.351Z,74.36
2022-09-12T05:04:36.992Z,74.58
2022-09-12T05:06:40.320Z,74.28
2022-09-12T05:08:43.000Z,74.06
2022-09-12T05:10:45.654Z,74.58
2022-09-12T05:12:48.330Z,74.68
2022-09-12T05:14:50.892Z,74.33
2022-09-12T05:16:53.792Z,74.10
2022-09-12T05:18:58.374Z,73.85
2022-09-12T05:21:02.117Z,74.48
2022-09-12T05:23:04.632Z,73.98
2022-09-12T05:25:08.588Z,75.20
2022-09-12T05:27:11.131Z,75.49
2022-09-12T05:29:14.085Z,76.27
2022-09-12T05:31:18.991Z,75.30
2022-09-12T05:33:24.996Z,75.26
2022-09-12T05:35:29.258Z,75.04
2022-09-12T05:37:31.835Z,75.64
2022-09-12T05:39:34.391Z,75.48
2022-09-12T05:41:37.185Z,75.30
2022-09-12T05:43:41.425Z,74.92
2022-09-12T05:45:44.059Z,74.81
2022-09-12T05:47:48.048Z,74.57
2022-09-12T05:49:52.926Z,74.56
2022-09-12T05:51:56.807Z,74.38
2022-09-12T05:54:01.261Z,74.45
2022-09-12T05:56:08.208Z,74.46
2022-09-12T05:58:10.757Z,74.61
2022-09-12T06:00:17.301Z,74.70
2022-09-12T06:02:19.939Z,74.64
2022-09-12T06:04:23.702Z,73.67
2022-09-12T06:06:27.722Z,76.05
2022-09-12T06:08:32.069Z,77.28
2022-09-12T06:10:35.339Z,76.68
2022-09-12T06:12:37.888Z,75.72
2022-09-12T06:14:40.399Z,75.37
2022-09-12T06:16:43.505Z,75.00
2022-09-12T06:18:49.188Z,74.50
2022-09-12T06:20:51.720Z,73.89
2022-09-12T06:22:54.327Z,74.29
2022-09-12T06:24:58.255Z,74.00
2022-09-12T06:27:02.290Z,74.34
2022-09-12T06:29:04.982Z,74.36
2022-09-12T06:31:10.654Z,74.35
2022-09-12T06:33:13.315Z,74.61
2022-09-12T06:35:16.137Z,74.52
2022-09-12T06:37:18.719Z,74.63
2022-09-12T06:39:23.256Z,75.10
2022-09-12T06:41:27.883Z,73.32
2022-09-12T06:43:30.587Z,74.61
2022-09-12T06:45:33.209Z,76.12
2022-09-12T06:47:35.757Z,75.99
2022-09-12T06:49:38.510Z,77.59
2022-09-12T06:51:43.294Z,77.23
2022-09-12T06:53:46.781Z,77.36
2022-09-12T06:55:56.199Z,76.46
2022-09-12T06:58:00.169Z,78.42
2022-09-12T07:00:04.378Z,76.61
2022-09-12T07:02:07.327Z,77.34
2022-09-12T07:04:10.361Z,77.74
2022-09-12T07:06:14.514Z,76.94
2022-09-12T07:08:16.992Z,78.59
2022-09-12T07:10:22.312Z,77.89
2022-09-12T07:12:25.063Z,78.87
2022-09-12T07:14:28.921Z,77.18
2022-09-12T07:16:32.248Z,76.89
2022-09-12T07:18:35.383Z,78.23
2022-09-12T07:20:39.237Z,78.84
2022-09-12T07:22:41.965Z,78.62
2022-09-12T07:24:45.791Z,79.02
2022-09-12T07:26:48.617Z,77.09
2022-09-12T07:28:52.743Z,77.91
2022-09-12T07:30:56.777Z,78.30
2022-09-12T07:32:59.371Z,78.32
2022-09-12T07:35:01.932Z,78.54
2022-09-12T07:37:07.473Z,80.23
2022-09-12T07:39:10.492Z,81.70
2022-09-12T07:41:13.733Z,81.66
2022-09-12T07:43:16.247Z,79.68
2022-09-12T07:45:18.762Z,79.67
2022-09-12T07:47:22.654Z,79.52
2022-09-12T07:49:25.601Z,79.65
2022-09-12T07:51:29.929Z,79.57
2022-09-12T07:53:35.259Z,79.56
2022-09-12T07:55:37.914Z,79.17
2022-09-12T07:57:40.504Z,79.28
2022-09-12T07:59:52.531Z,79.37
2022-09-12T08:01:58.611Z,79.40
2022-09-12T08:04:04.693Z,79.44
2022-09-12T08:06:09.379Z,79.23
2022-09-12T08:08:12.052Z,78.97
2022-09-12T08:10:16.219Z,79.96
2022-09-12T08:12:20.258Z,79.87
2022-09-12T08:14:22.833Z,79.28
2022-09-12T08:16:31.063Z,79.10
2022-09-12T08:18:34.306Z,78.76
2022-09-12T08:20:38.205Z,78.81
2022-09-12T08:22:40.829Z,78.72
2022-09-12T08:24:43.774Z,78.62
2022-09-12T08:26:46.608Z,78.19
2022-09-12T08:28:49.274Z,79.22
2022-09-12T08:30:52.105Z,79.72
2022-09-12T08:32:54.725Z,79.75
2022-09-12T08:34:57.257Z,79.88
2022-09-12T08:37:01.151Z,79.90
2022-09-12T08:39:06.751Z,79.78
2022-09-12T08:41:16.203Z,77.88
2022-09-12T08:43:34.249Z,78.36
2022-09-12T08:45:44.072Z,78.32
2022-09-12T08:47:48.059Z,77.73
2022-09-12T08:49:57.359Z,77.62
2022-09-12T08:52:11.527Z,77.28
2022-09-12T08:54:21.204Z,77.78
2022-09-12T08:56:26.477Z,78.06
2022-09-12T08:58:35.231Z,78.53
2022-09-12T09:00:45.857Z,78.47
2022-09-12T09:03:11.771Z,78.28
2022-09-12T09:05:21.105Z,77.70
2022-09-12T09:07:46.677Z,77.08
2022-09-12T09:10:07.955Z,76.75
2022-09-12T09:12:18.926Z,75.90
2022-09-12T09:14:47.859Z,75.32
2022-09-12T09:16:53.704Z,75.08
2022-09-12T09:18:59.493Z,75.18
2022-09-12T09:21:06.816Z,74.89
2022-09-12T09:23:16.147Z,74.94
2022-09-12T09:25:23.728Z,74.59
2022-09-12T09:27:41.399Z,74.21
2022-09-12T09:29:49.023Z,74.80
2022-09-12T09:31:55.882Z,74.34
2022-09-12T09:33:58.630Z,73.97
2022-09-12T09:36:12.027Z,73.90
2022-09-12T09:38:24.827Z,73.71
2022-09-12T09:40:35.966Z,74.01
2022-09-12T09:42:44.837Z,73.93
2022-09-12T09:44:49.223Z,73.86
2022-09-12T09:46:56.419Z,74.19
2022-09-12T09:49:03.060Z,74.44
2022-09-12T09:51:09.172Z,74.83
2022-09-12T09:53:23.512Z,73.84
2022-09-12T09:55:35.210Z,71.44
2022-09-12T09:57:44.612Z,71.78
2022-09-12T09:59:47.169Z,71.93
2022-09-12T10:01:53.731Z,71.79
2022-09-12T10:03:57.668Z,71.54
2022-09-12T10:06:02.089Z,71.56
2022-09-12T10:08:08.106Z,72.05
2022-09-12T10:10:17.163Z,72.01
2022-09-12T10:12:29.192Z,71.69
2022-09-12T10:14:37.874Z,71.70
2022-09-12T10:16:53.274Z,71.70
2022-09-12T10:18:57.152Z,71.32
2022-09-12T10:21:01.637Z,71.34
2022-09-12T10:23:30.188Z,71.02
2022-09-12T10:25:32.789Z,70.85
2022-09-12T10:27:37.019Z,70.95
2022-09-12T10:29:45.754Z,71.36
2022-09-12T10:31:52.124Z,71.71
2022-09-12T10:33:55.610Z,71.58
2022-09-12T10:36:04.610Z,71.32
2022-09-12T10:38:08.414Z,71.67
2022-09-12T10:40:25.197Z,71.90
2022-09-12T10:42:48.224Z,71.50
2022-09-12T10:44:55.553Z,71.19
2022-09-12T10:46:59.890Z,70.43
2022-09-12T10:49:22.328Z,70.16
2022-09-12T10:51:29.201Z,70.14
2022-09-12T10:53:41.093Z,70.09
2022-09-12T10:55:55.454Z,69.96
2022-09-12T10:58:15.548Z,70.62
2022-09-12T11:00:27.394Z,71.05
2022-09-12T11:02:30.407Z,71.05
2022-09-12T11:04:47.560Z,71.09
2022-09-12T11:07:03.569Z,70.71
2022-09-12T11:09:15.107Z,70.54
2022-09-12T11:11:34.754Z,70.01
2022-09-12T11:13:54.696Z,70.31
2022-09-12T11:16:13.592Z,70.15
2022-09-12T11:18:33.993Z,68.71
2022-09-12T11:21:02.073Z,68.26
2022-09-12T11:23:33.280Z,68.55
2022-09-12T11:25:46.232Z,68.20
2022-09-12T11:28:01.632Z,67.16
2022-09-12T11:30:10.812Z,66.97
2022-09-12T11:32:38.271Z,65.66
2022-09-12T11:34:53.602Z,64.90
2022-09-12T11:37:11.001Z,63.41
2022-09-12T11:39:16.574Z,63.78
2022-09-12T11:41:24.524Z,64.05
2022-09-12T11:43:33.991Z,64.44
2022-09-12T11:45:43.158Z,64.48
2022-09-12T11:47:50.877Z,63.09
2022-09-12T11:49:55.702Z,63.01
2022-09-12T11:52:04.497Z,63.11
2022-09-12T11:54:16.504Z,63.46
2022-09-12T11:56:19.740Z,62.67
2022-09-12T11:58:26.907Z,59.74
2022-09-12T12:00:34.965Z,59.21
2022-09-12T12:02:45.467Z,59.78
2022-09-12T12:05:02.861Z,60.78
2022-09-12T12:07:08.729Z,60.87
2022-09-12T12:09:13.769Z,60.88
2022-09-12T12:11:25.598Z,61.06
2022-09-12T12:13:31.256Z,59.76
2022-09-12T12:15:39.113Z,59.50
2022-09-12T12:17:43.512Z,59.67
2022-09-12T12:19:47.009Z,59.08
2022-09-12T12:21:51.783Z,58.26
2022-09-12T12:24:05.265Z,58.34
2022-09-12T12:26:58.994Z,58.03
2022-09-12T12:29:02.070Z,58.54
2022-09-12T12:31:05.481Z,57.50
2022-09-12T12:33:51.828Z,55.84
2022-09-12T12:36:05.036Z,53.72
2022-09-12T12:38:29.089Z,48.93
2022-09-12T12:40:32.782Z,48.42
2022-09-12T12:43:08.847Z,47.94
2022-09-12T12:45:44.862Z,42.11
2022-09-12T12:47:50.392Z,41.32
2022-09-12T12:49:59.965Z,42.15
2022-09-12T12:52:02.965Z,42.35
2022-09-12T12:54:26.717Z,41.53
2022-09-12T12:56:36.051Z,40.36
2022-09-12T12:58:41.146Z,37.88
2022-09-12T13:00:47.101Z,37.63
2022-09-12T13:02:53.232Z,36.51
2022-09-12T13:04:59.607Z,35.47
2022-09-12T13:07:08.373Z,34.09
2022-09-12T13:09:22.469Z,33.09
2022-09-12T13:11:31.828Z,33.01
2022-09-12T13:13:39.629Z,32.96
2022-09-12T13:15:52.180Z,31.11
2022-09-12T13:17:59.984Z,30.13
2022-09-12T13:20:27.385Z,30.30
2022-09-12T13:22:41.137Z,28.25
2022-09-12T13:24:44.217Z,29.46
2022-09-12T13:26:49.408Z,29.61
2022-09-12T13:29:09.425Z,28.94
2022-09-12T13:31:21.401Z,28.51
2022-09-12T13:33:32.679Z,29.66
2022-09-12T13:35:50.413Z,29.22
2022-09-12T13:38:03.255Z,28.86
2022-09-12T13:40:24.315Z,29.18
2022-09-12T13:42:41.539Z,29.36
2022-09-12T13:44:46.852Z,28.36
2022-09-12T13:46:50.854Z,28.47
2022-09-12T13:48:53.767Z,29.23
2022-09-12T13:51:00.002Z,27.61
2022-09-12T13:53:05.792Z,28.44
2022-09-12T13:55:16.390Z,28.91
2022-09-12T13:57:30.801Z,29.17
2022-09-12T13:59:39.543Z,28.91
2022-09-12T14:01:44.911Z,27.79
2022-09-12T14:04:09.175Z,29.96
2022-09-12T14:06:16.013Z,30.56
2022-09-12T14:08:19.369Z,30.05
2022-09-12T14:10:28.115Z,28.80
2022-09-12T14:12:35.182Z,30.06
2022-09-12T14:14:43.919Z,31.06
2022-09-12T14:16:47.130Z,30.71
2022-09-12T14:18:51.589Z,32.13
2022-09-12T14:20:57.105Z,31.37
2022-09-12T14:23:03.938Z,30.11
2022-09-12T14:25:10.813Z,30.53
2022-09-12T14:27:15.515Z,30.31
2022-09-12T14:29:18.888Z,31.30
2022-09-12T14:31:25.091Z,30.95
2022-09-12T14:33:27.692Z,32.25
2022-09-12T14:35:32.475Z,32.99
2022-09-12T14:37:35.473Z,32.74
2022-09-12T14:39:42.368Z,32.80
2022-09-12T14:41:46.192Z,30.39
2022-09-12T14:43:54.184Z,31.58
2022-09-12T14:46:00.328Z,30.76
2022-09-12T14:48:03.259Z,31.29
2022-09-12T14:50:16.705Z,31.25
2022-09-12T14:52:26.769Z,31.05
2022-09-12T14:54:42.738Z,31.83
2022-09-12T14:56:54.329Z,32.54
2022-09-12T14:59:30.204Z,33.04
2022-09-12T15:01:32.948Z,32.21
2022-09-12T15:03:36.998Z,33.01
2022-09-12T15:05:49.879Z,33.61
2022-09-12T15:07:55.872Z,33.40
2022-09-12T15:10:01.557Z,33.89
2022-09-12T15:12:04.147Z,33.37
2022-09-12T15:14:13.421Z,33.61
2022-09-12T15:16:16.140Z,33.34
2022-09-12T15:18:19.980Z,31.79
2022-09-12T15:20:23.331Z,32.48
2022-09-12T15:22:26.288Z,32.73
2022-09-12T15:24:28.917Z,30.87
2022-09-12T15:26:33.213Z,31.73
2022-09-12T15:28:35.752Z,30.83
2022-09-12T15:30:38.464Z,30.91
2022-09-12T15:32:43.094Z,31.47
2022-09-12T15:34:45.620Z,32.29
2022-09-12T15:36:48.153Z,32.44
2022-09-12T15:38:51.613Z,31.63
2022-09-12T15:40:54.587Z,32.66
2022-09-12T15:42:58.916Z,32.33
2022-09-12T15:45:02.725Z,32.86
2022-09-12T15:47:05.861Z,33.26
2022-09-12T15:49:08.576Z,33.74
2022-09-12T15:51:15.470Z,34.33
2022-09-12T15:53:18.743Z,33.87
2022-09-12T15:55:23.765Z,34.03
2022-09-12T15:57:26.354Z,33.48
2022-09-12T15:59:31.115Z,33.63
2022-09-12T16:01:33.730Z,34.62
2022-09-12T16:03:36.292Z,35.14
2022-09-12T16:05:38.941Z,35.61
2022-09-12T16:07:41.485Z,36.33
2022-09-12T16:09:44.034Z,36.24
2022-09-12T16:11:46.971Z,36.04
2022-09-12T16:13:49.637Z,37.32
2022-09-12T16:15:53.754Z,37.47
2022-09-12T16:17:56.343Z,37.90
2022-09-12T16:19:58.983Z,37.44
2022-09-12T16:22:01.559Z,37.22
2022-09-12T16:24:04.872Z,38.94
2022-09-12T16:26:08.037Z,39.11
2022-09-12T16:28:10.638Z,40.26
2022-09-12T16:30:14.429Z,40.81
2022-09-12T16:32:18.451Z,40.72
2022-09-12T16:34:20.994Z,41.80
2022-09-12T16:36:24.061Z,41.24
2022-09-12T16:38:26.566Z,40.98
2022-09-12T16:40:29.132Z,41.63
2022-09-12T16:42:32.069Z,41.97
2022-09-12T16:44:34.622Z,41.61
2022-09-12T16:46:37.213Z,42.78
2022-09-12T16:48:50.947Z,42.94
2022-09-12T16:50:57.834Z,43.05
2022-09-12T16:53:00.358Z,43.07
2022-09-12T16:55:02.921Z,43.15
2022-09-12T16:57:06.519Z,43.65
2022-09-12T16:59:12.056Z,43.73
2022-09-12T17:01:16.653Z,43.71
2022-09-12T17:03:19.185Z,44.28
2022-09-12T17:05:23.064Z,44.47
2022-09-12T17:07:25.679Z,44.82
2022-09-12T17:09:29.313Z,45.93
2022-09-12T17:11:33.698Z,46.06
2022-09-12T17:14:00.109Z,46.27
2022-09-12T17:15:59.427Z,46.97
2022-09-12T17:18:02.158Z,46.60
2022-09-12T17:20:05.203Z,47.24
2022-09-12T17:22:09.105Z,47.85
2022-09-12T17:24:11.871Z,48.38
2022-09-12T17:26:14.892Z,48.41
2022-09-12T17:28:17.540Z,48.58
2022-09-12T17:30:20.165Z,48.46
2022-09-12T17:32:22.741Z,48.91
2022-09-12T17:34:25.259Z,49.20
2022-09-12T17:36:29.475Z,49.36
2022-09-12T17:38:35.180Z,49.73
2022-09-12T17:40:58.642Z,49.90
2022-09-12T17:43:01.898Z,49.55
2022-09-12T17:45:05.065Z,49.73
2022-09-12T17:47:07.734Z,50.04
2022-09-12T17:49:13.778Z,50.14
2022-09-12T17:51:16.375Z,50.63
2022-09-12T17:53:18.915Z,50.70
2022-09-12T17:55:22.751Z,50.54
2022-09-12T17:57:25.766Z,51.00
2022-09-12T17:59:28.497Z,51.79
2022-09-12T18:01:49.686Z,51.90
2022-09-12T18:03:55.561Z,52.61
2022-09-12T18:05:58.189Z,52.85
2022-09-12T18:08:00.755Z,52.41
2022-09-12T18:10:03.324Z,51.66
2022-09-12T18:12:08.071Z,51.18
2022-09-12T18:14:14.021Z,51.02
2022-09-12T18:16:17.466Z,51.62
2022-09-12T18:18:20.030Z,51.61
2022-09-12T18:20:22.761Z,51.01
2022-09-12T18:22:25.316Z,51.19
2022-09-12T18:24:28.174Z,52.07
2022-09-12T18:26:31.931Z,52.48
2022-09-12T18:28:38.536Z,52.43
2022-09-12T18:30:42.387Z,52.77
2022-09-12T18:32:44.904Z,52.84
2022-09-12T18:34:47.434Z,52.89
2022-09-12T18:36:54.219Z,52.51
2022-09-12T18:38:59.154Z,52.83
2022-09-12T18:41:05.837Z,52.45
2022-09-12T18:43:08.365Z,52.85
2022-09-12T18:45:12.719Z,52.62
2022-09-12T18:47:15.711Z,52.82
2022-09-12T18:49:18.429Z,53.28
2022-09-12T18:51:23.430Z,52.94
2022-09-12T18:53:26.103Z,52.88
2022-09-12T18:55:28.665Z,53.44
2022-09-12T18:57:34.891Z,53.78
2022-09-12T18:59:40.051Z,53.68
2022-09-12T19:01:44.351Z,54.04
2022-09-12T19:03:47.584Z,54.45
2022-09-12T19:05:50.204Z,54.05
2022-09-12T19:07:52.832Z,53.90
2022-09-12T19:09:55.743Z,54.09
2022-09-12T19:11:58.292Z,54.75
2022-09-12T19:14:00.990Z,54.42
2022-09-12T19:16:05.633Z,53.99
2022-09-12T19:18:09.742Z,53.77
2022-09-12T19:20:12.313Z,54.23
2022-09-12T19:22:14.845Z,55.01
2022-09-12T19:24:17.732Z,55.00
2022-09-12T19:26:22.146Z,54.56
2022-09-12T19:28:24.765Z,54.67
2022-09-12T19:30:28.699Z,55.24
2022-09-12T19:32:34.149Z,54.92
2022-09-12T19:34:38.701Z,55.32
2022-09-12T19:36:45.268Z,54.83
2022-09-12T19:38:48.291Z,54.93
2022-09-12T19:40:58.023Z,55.01
2022-09-12T19:43:00.615Z,55.31
2022-09-12T19:45:03.144Z,55.01
2022-09-12T19:47:06.812Z,55.19
2022-09-12T19:49:11.166Z,55.31
2022-09-12T19:51:16.006Z,55.45
2022-09-12T19:53:19.175Z,55.52
2022-09-12T19:55:22.286Z,55.41
2022-09-12T19:57:25.593Z,55.84
2022-09-12T19:59:28.120Z,56.39
2022-09-12T20:01:30.806Z,57.28
2022-09-12T20:03:33.769Z,57.47
2022-09-12T20:05:40.735Z,57.76
2022-09-12T20:07:46.713Z,57.71
2022-09-12T20:09:49.325Z,57.70
2022-09-12T20:11:51.980Z,57.58
2022-09-12T20:13:54.723Z,57.30
2022-09-12T20:15:58.963Z,57.44
2022-09-12T20:18:01.635Z,57.36
2022-09-12T20:20:05.367Z,57.39
2022-09-12T20:22:08.038Z,56.91
2022-09-12T20:24:15.712Z,57.12
2022-09-12T20:26:20.074Z,57.34
2022-09-12T20:28:22.890Z,57.38
2022-09-12T20:30:25.781Z,56.91
2022-09-12T20:32:28.910Z,56.80
2022-09-12T20:34:31.439Z,56.96
2022-09-12T20:36:34.335Z,57.22
2022-09-12T20:38:37.441Z,57.48
2022-09-12T20:40:48.914Z,57.63
2022-09-12T20:42:51.449Z,57.91
2022-09-12T20:44:53.974Z,58.01
2022-09-12T20:46:56.631Z,58.12
2022-09-12T20:48:59.426Z,58.47
2022-09-12T20:51:02.189Z,58.39
2022-09-12T20:53:05.248Z,58.24
2022-09-12T20:55:08.798Z,58.15
2022-09-12T20:57:12.683Z,57.73
2022-09-12T20:59:17.791Z,57.74
2022-09-12T21:01:21.203Z,57.53
2022-09-12T21:03:25.342Z,57.79
2022-09-12T21:05:27.980Z,57.75
2022-09-12T21:07:31.581Z,57.54
2022-09-12T21:09:34.166Z,57.24
2022-09-12T21:11:36.711Z,56.74
2022-09-12T21:13:40.888Z,57.05
2022-09-12T21:15:43.563Z,56.82
2022-09-12T21:17:46.119Z,56.80
2022-09-12T21:19:48.653Z,56.94
2022-09-12T21:21:51.250Z,56.93
2022-09-12T21:23:55.426Z,56.85
2022-09-12T21:25:59.997Z,57.40
2022-09-12T21:28:03.248Z,57.50
2022-09-12T21:30:11.503Z,57.87
2022-09-12T21:32:14.433Z,57.46
2022-09-12T21:34:17.021Z,57.56
2022-09-12T21:36:19.683Z,57.34
2022-09-12T21:38:22.317Z,57.09
2022-09-12T21:40:24.883Z,57.09
2022-09-12T21:42:28.205Z,57.46
2022-09-12T21:44:30.968Z,57.00
2022-09-12T21:46:34.852Z,56.75
2022-09-12T21:48:38.198Z,56.68
2022-09-12T21:50:40.738Z,56.74
2022-09-12T21:52:43.607Z,57.35
2022-09-12T21:54:46.146Z,57.89
2022-09-12T21:56:48.669Z,58.36
2022-09-12T21:58:51.225Z,58.58
2022-09-12T22:00:53.927Z,58.65
2022-09-12T22:02:57.959Z,58.33
2022-09-12T22:05:00.482Z,58.15
2022-09-12T22:07:03.127Z,58.29
2022-09-12T22:09:07.244Z,58.72
2022-09-12T22:11:10.701Z,59.17
2022-09-12T22:13:13.241Z,59.55
2022-09-12T22:15:39.580Z,59.64
2022-09-12T22:17:38.767Z,59.43
2022-09-12T22:19:42.621Z,59.32
2022-09-12T22:22:05.952Z,59.70
2022-09-12T22:24:27.799Z,60.51
2022-09-12T22:26:34.368Z,60.28
2022-09-12T22:28:36.874Z,60.33
2022-09-12T22:30:39.626Z,60.61
2022-09-12T22:32:42.183Z,60.77
2022-09-12T22:34:46.150Z,60.83
2022-09-12T22:36:49.488Z,60.94
2022-09-12T22:38:52.055Z,61.17
2022-09-12T22:40:54.607Z,61.07
2022-09-12T22:42:57.299Z,61.41
2022-09-12T22:44:59.840Z,61.43
2022-09-12T22:47:02.426Z,61.50
2022-09-12T22:49:05.620Z,61.93
2022-09-12T22:51:10.085Z,62.08
2022-09-12T22:53:12.705Z,62.26
2022-09-12T22:55:15.321Z,62.58
2022-09-12T22:57:18.028Z,62.57
2022-09-12T22:59:20.608Z,62.51
2022-09-12T23:01:23.928Z,62.21
2022-09-12T23:03:26.509Z,62.14
2022-09-12T23:05:29.166Z,61.75
2022-09-12T23:07:33.465Z,61.68
2022-09-12T23:09:35.992Z,61.67
2022-09-12T23:11:38.568Z,62.15
2022-09-12T23:13:43.659Z,61.99
2022-09-12T23:15:46.325Z,62.15
2022-09-12T23:17:49.063Z,62.13
2022-09-12T23:19:51.664Z,62.31
2022-09-12T23:21:54.180Z,62.34
2022-09-12T23:23:58.398Z,62.73
2022-09-12T23:26:05.993Z,62.84
2022-09-12T23:28:08.512Z,62.83
2022-09-12T23:30:12.118Z,62.78
2022-09-12T23:32:14.655Z,63.01
2022-09-12T23:34:17.287Z,63.18
2022-09-12T23:36:19.854Z,62.97
2022-09-12T23:38:22.544Z,62.77
2022-09-12T23:40:26.403Z,62.54
2022-09-12T23:42:28.905Z,61.97
2022-09-12T23:44:31.501Z,61.54
2022-09-12T23:46:34.188Z,61.24
2022-09-12T23:48:36.832Z,61.37
2022-09-12T23:50:39.418Z,61.02
2022-09-12T23:52:41.953Z,61.13
2022-09-12T23:54:44.533Z,61.34
2022-09-12T23:56:48.667Z,61.51
2022-09-12T23:58:51.304Z,61.77
